Messwerte Dillingham

Temperatur

Temperatur
°C
1574211600 16.00 16.00 3
1574215200 17.00 17.00 3
1574218800 18.00 18.00 3
1574222400 19.00 19.00 4
1574226000 20.00 20.00 3
1574229600 21.00 21.00 3
1574233200 22.00 22.00 3
1574236800 23.00 23.00 3
1574240400 0.00 0.00 4
1574244000 1.00 1.00 3
1574247600 2.00 2.00 3
1574251200 3.00 3.00 3
1574254800 4.00 4.00 2
1574258400 5.00 5.00 3
1574262000 6.00 6.00 3
1574265600 7.00 7.00 3
1574269200 8.00 8.00 2
1574272800 9.00 9.00
1574276400 10.00 10.00 1
1574280000 11.00 11.00 1
1574283600 12.00 12.00
1574287200 13.00 13.00 1
1574290800 14.00 14.00 1
1574294400 15.00 15.00 1

Aktuellste Messwerte

Wettercharakter
Wetter: bedeckt
Temperatur
1 °C
Feuchtigkeit
100 %
Wind
10 km/hWindrichtung: Süd
Luftdruck
982 hPa
Messzeit: 20. November 2019, 16.00Datenquelle: METAR

Weitere Messstationen in der Nähe

Messstation Temperatur Entfernung
Togiac Village - 107 km
King Salmon 3 °C 115 km
Egegik 3 °C 116 km
Pilot Point 3 °C 172 km
Cape Newenham 3 °C 209 km
Iliamna 4 °C 218 km
Port Heiden 4 °C 233 km

Wind

Windrichtung Böen Mittelwind
° km/h km/h
1574211600 16.00 15.00 - 16.00 180° 30 20
1574215200 17.00 16.00 - 17.00 170° 20
1574218800 18.00 17.00 - 18.00 150° 10
1574222400 19.00 18.00 - 19.00 150° 15
1574226000 20.00 19.00 - 20.00 130° 10
1574229600 21.00 20.00 - 21.00 130° 20
1574233200 22.00 21.00 - 22.00 70° 15
1574236800 23.00 22.00 - 23.00 120° 20
1574240400 0.00 23.00 - 0.00 110° 20
1574244000 1.00 0.00 - 1.00 120° 20
1574247600 2.00 1.00 - 2.00 160° 45 25
1574251200 3.00 2.00 - 3.00 190° 45 25
1574254800 4.00 3.00 - 4.00 130° 10
1574258400 5.00 4.00 - 5.00 100° 5
1574262000 6.00 5.00 - 6.00 140° 15
1574265600 7.00 6.00 - 7.00 170° 20
1574269200 8.00 7.00 - 8.00 170° 15
1574272800 9.00 8.00 - 9.00
1574276400 10.00 9.00 - 10.00 170° 25 15
1574280000 11.00 10.00 - 11.00 190° 30 20
1574283600 12.00 11.00 - 12.00
1574287200 13.00 12.00 - 13.00 190° 15
1574290800 14.00 13.00 - 14.00 190° 15
1574294400 15.00 14.00 - 15.00 180° 10

Ihre Wetterstation

Fehlt Ihre Wetterstation auf unserem Portal?

Schreiben Sie an network@meteonews.ch

Klima

Wann ist es am wärmsten? Wann regnet es am wenigsten? Unsere Klimadaten geben Auskunft.